sensor_id;sensor_type;location;lat;lon;timestamp;pressure;altitude;pressure_sealevel;temperature;humidity
10688;BME280;5392;42.688;23.298;2023-07-22T00:00:01;57194.25;;;-144.48;63.10
10688;BME280;5392;42.688;23.298;2023-07-22T00:02:27;57231.84;;;-144.48;63.20
10688;BME280;5392;42.688;23.298;2023-07-22T00:04:54;57271.50;;;-144.48;63.59
10688;BME280;5392;42.688;23.298;2023-07-22T00:07:21;57267.31;;;-144.48;64.17
10688;BME280;5392;42.688;23.298;2023-07-22T00:09:48;57223.50;;;-144.48;64.27
10688;BME280;5392;42.688;23.298;2023-07-22T00:12:16;57263.16;;;-144.48;64.61
10688;BME280;5392;42.688;23.298;2023-07-22T00:14:43;57269.41;;;-144.48;64.82
10688;BME280;5392;42.688;23.298;2023-07-22T00:17:10;57248.53;;;-144.48;65.60
10688;BME280;5392;42.688;23.298;2023-07-22T00:19:37;57213.06;;;-144.48;65.68
10688;BME280;5392;42.688;23.298;2023-07-22T00:22:04;57244.34;;;-144.48;65.83
10688;BME280;5392;42.688;23.298;2023-07-22T00:24:30;57244.34;;;-144.48;66.31
10688;BME280;5392;42.688;23.298;2023-07-22T00:26:58;57238.09;;;-144.48;66.77
10688;BME280;5392;42.688;23.298;2023-07-22T00:29:24;57263.16;;;-144.48;67.04
10688;BME280;5392;42.688;23.298;2023-07-22T00:31:51;57252.72;;;-144.48;67.14
10688;BME280;5392;42.688;23.298;2023-07-22T00:34:18;57267.31;;;-144.48;67.44
10688;BME280;5392;42.688;23.298;2023-07-22T00:36:44;57263.16;;;-144.48;67.88
10688;BME280;5392;42.688;23.298;2023-07-22T00:39:12;57210.97;;;-144.48;67.93
10688;BME280;5392;42.688;23.298;2023-07-22T00:41:40;57236.00;;;-144.48;67.81
10688;BME280;5392;42.688;23.298;2023-07-22T00:44:11;57334.09;;;-144.48;67.87
10688;BME280;5392;42.688;23.298;2023-07-22T00:46:39;57238.09;;;-144.48;67.98
10688;BME280;5392;42.688;23.298;2023-07-22T00:49:07;57275.66;;;-144.48;67.78
10688;BME280;5392;42.688;23.298;2023-07-22T00:51:34;57244.34;;;-144.48;67.88
10688;BME280;5392;42.688;23.298;2023-07-22T00:54:01;57244.34;;;-144.48;68.23
10688;BME280;5392;42.688;23.298;2023-07-22T00:56:28;57258.97;;;-144.48;68.40
10688;BME280;5392;42.688;23.298;2023-07-22T00:58:57;57231.84;;;-144.48;68.69
10688;BME280;5392;42.688;23.298;2023-07-22T01:01:24;57238.09;;;-144.48;68.82
10688;BME280;5392;42.688;23.298;2023-07-22T01:03:50;57185.91;;;-144.48;68.82
10688;BME280;5392;42.688;23.298;2023-07-22T01:06:17;57265.22;;;-144.48;68.41
10688;BME280;5392;42.688;23.298;2023-07-22T01:08:44;57221.41;;;-144.48;68.56
10688;BME280;5392;42.688;23.298;2023-07-22T01:11:13;57265.22;;;-144.48;69.28
10688;BME280;5392;42.688;23.298;2023-07-22T01:13:40;57240.19;;;-144.48;69.76
10688;BME280;5392;42.688;23.298;2023-07-22T01:16:07;57267.31;;;-144.48;70.00
10688;BME280;5392;42.688;23.298;2023-07-22T01:18:34;57229.75;;;-144.48;70.03
10688;BME280;5392;42.688;23.298;2023-07-22T01:21:01;57244.34;;;-144.48;70.37
10688;BME280;5392;42.688;23.298;2023-07-22T01:23:28;57275.66;;;-144.48;70.59
10688;BME280;5392;42.688;23.298;2023-07-22T01:25:55;57238.09;;;-144.48;71.01
10688;BME280;5392;42.688;23.298;2023-07-22T01:28:22;57250.63;;;-144.48;71.21
10688;BME280;5392;42.688;23.298;2023-07-22T01:30:49;57254.78;;;-144.48;71.86
10688;BME280;5392;42.688;23.298;2023-07-22T01:33:15;57246.44;;;-144.48;72.48
10688;BME280;5392;42.688;23.298;2023-07-22T01:35:42;57279.84;;;-144.48;73.04
10688;BME280;5392;42.688;23.298;2023-07-22T01:38:09;57246.44;;;-144.48;72.61
10688;BME280;5392;42.688;23.298;2023-07-22T01:40:35;57269.41;;;-144.48;72.13
10688;BME280;5392;42.688;23.298;2023-07-22T01:43:02;57258.97;;;-144.48;72.04
10688;BME280;5392;42.688;23.298;2023-07-22T01:45:29;57252.72;;;-144.48;72.61
10688;BME280;5392;42.688;23.298;2023-07-22T01:47:55;57233.91;;;-144.48;74.20
10688;BME280;5392;42.688;23.298;2023-07-22T01:50:22;57238.09;;;-144.48;74.54
10688;BME280;5392;42.688;23.298;2023-07-22T01:52:49;57254.78;;;-144.48;73.78
10688;BME280;5392;42.688;23.298;2023-07-22T01:55:15;57265.22;;;-144.48;73.96
10688;BME280;5392;42.688;23.298;2023-07-22T01:57:42;57248.53;;;-144.48;74.15
10688;BME280;5392;42.688;23.298;2023-07-22T02:00:09;57296.53;;;-144.48;75.09
10688;BME280;5392;42.688;23.298;2023-07-22T02:02:37;57286.09;;;-144.48;75.47
10688;BME280;5392;42.688;23.298;2023-07-22T02:05:05;57265.22;;;-144.48;75.43
10688;BME280;5392;42.688;23.298;2023-07-22T02:07:32;57217.22;;;-144.48;76.02
10688;BME280;5392;42.688;23.298;2023-07-22T02:09:59;57271.50;;;-144.48;74.87
10688;BME280;5392;42.688;23.298;2023-07-22T02:12:26;57292.38;;;-144.48;75.28
10688;BME280;5392;42.688;23.298;2023-07-22T02:14:53;57248.53;;;-144.48;74.93
10688;BME280;5392;42.688;23.298;2023-07-22T02:17:19;57290.28;;;-144.48;74.95
10688;BME280;5392;42.688;23.298;2023-07-22T02:19:47;57256.88;;;-144.48;75.71
10688;BME280;5392;42.688;23.298;2023-07-22T02:22:13;57233.91;;;-144.48;76.38
10688;BME280;5392;42.688;23.298;2023-07-22T02:24:40;57246.44;;;-144.48;76.37
10688;BME280;5392;42.688;23.298;2023-07-22T02:27:07;57261.06;;;-144.48;76.14
10688;BME280;5392;42.688;23.298;2023-07-22T02:29:36;57221.41;;;-144.48;76.08
10688;BME280;5392;42.688;23.298;2023-07-22T02:32:03;57279.84;;;-144.48;76.76
10688;BME280;5392;42.688;23.298;2023-07-22T02:34:30;57284.00;;;-144.48;77.44
10688;BME280;5392;42.688;23.298;2023-07-22T02:36:57;57213.06;;;-144.48;77.04
10688;BME280;5392;42.688;23.298;2023-07-22T02:39:23;57267.31;;;-144.48;76.70
10688;BME280;5392;42.688;23.298;2023-07-22T02:41:50;57252.72;;;-144.48;76.81
10688;BME280;5392;42.688;23.298;2023-07-22T02:44:17;57263.16;;;-144.48;76.31
10688;BME280;5392;42.688;23.298;2023-07-22T02:46:44;57267.31;;;-144.48;76.90
10688;BME280;5392;42.688;23.298;2023-07-22T02:49:10;57244.34;;;-144.48;77.33
10688;BME280;5392;42.688;23.298;2023-07-22T02:51:37;57271.50;;;-144.48;77.47
10688;BME280;5392;42.688;23.298;2023-07-22T02:54:04;57309.06;;;-144.48;78.06
10688;BME280;5392;42.688;23.298;2023-07-22T02:56:30;57236.00;;;-144.48;78.66
10688;BME280;5392;42.688;23.298;2023-07-22T02:58:57;57242.28;;;-144.48;78.42
10688;BME280;5392;42.688;23.298;2023-07-22T03:01:24;57261.06;;;-144.48;78.18
10688;BME280;5392;42.688;23.298;2023-07-22T03:03:51;57273.56;;;-144.48;78.43
10688;BME280;5392;42.688;23.298;2023-07-22T03:06:18;57244.34;;;-144.48;78.65
10688;BME280;5392;42.688;23.298;2023-07-22T03:08:45;57292.38;;;-144.48;79.25
10688;BME280;5392;42.688;23.298;2023-07-22T03:11:11;57269.41;;;-144.48;79.48
10688;BME280;5392;42.688;23.298;2023-07-22T03:13:38;57223.50;;;-144.48;79.31
10688;BME280;5392;42.688;23.298;2023-07-22T03:16:05;57256.88;;;-144.48;79.05
10688;BME280;5392;42.688;23.298;2023-07-22T03:18:31;57281.94;;;-144.48;79.35
10688;BME280;5392;42.688;23.298;2023-07-22T03:20:58;57294.44;;;-144.48;78.94
10688;BME280;5392;42.688;23.298;2023-07-22T03:23:25;57281.94;;;-144.48;79.05
10688;BME280;5392;42.688;23.298;2023-07-22T03:25:51;57258.97;;;-144.48;79.25
10688;BME280;5392;42.688;23.298;2023-07-22T03:28:18;57246.44;;;-144.48;78.38
10688;BME280;5392;42.688;23.298;2023-07-22T03:30:45;57269.41;;;-144.48;76.85
10688;BME280;5392;42.688;23.298;2023-07-22T03:33:11;57254.78;;;-144.48;75.83
10688;BME280;5392;42.688;23.298;2023-07-22T03:35:38;57265.22;;;-144.48;75.22
10688;BME280;5392;42.688;23.298;2023-07-22T03:38:07;57258.97;;;-144.48;73.81
10688;BME280;5392;42.688;23.298;2023-07-22T03:40:34;57244.34;;;-144.48;72.49
10688;BME280;5392;42.688;23.298;2023-07-22T03:43:01;57246.44;;;-144.48;71.11
10688;BME280;5392;42.688;23.298;2023-07-22T03:45:28;57240.19;;;-144.48;69.08
10688;BME280;5392;42.688;23.298;2023-07-22T03:47:58;57279.84;;;-144.48;68.24
10688;BME280;5392;42.688;23.298;2023-07-22T03:50:26;57233.91;;;-144.48;67.34
10688;BME280;5392;42.688;23.298;2023-07-22T03:52:53;57258.97;;;-144.48;66.40
10688;BME280;5392;42.688;23.298;2023-07-22T03:55:20;57248.53;;;-144.48;65.06
10688;BME280;5392;42.688;23.298;2023-07-22T03:57:46;57248.53;;;-144.48;63.67
10688;BME280;5392;42.688;23.298;2023-07-22T04:00:13;57229.75;;;-144.48;62.47
10688;BME280;5392;42.688;23.298;2023-07-22T04:02:40;57250.63;;;-144.48;61.07
10688;BME280;5392;42.688;23.298;2023-07-22T04:05:07;57204.69;;;-144.48;59.71
10688;BME280;5392;42.688;23.298;2023-07-22T04:07:34;57229.75;;;-144.48;58.60
10688;BME280;5392;42.688;23.298;2023-07-22T04:10:01;57208.88;;;-144.48;57.94
10688;BME280;5392;42.688;23.298;2023-07-22T04:12:29;57229.75;;;-144.48;56.32
10688;BME280;5392;42.688;23.298;2023-07-22T04:14:55;57244.34;;;-144.48;55.44
10688;BME280;5392;42.688;23.298;2023-07-22T04:17:22;57204.69;;;-144.48;54.57
10688;BME280;5392;42.688;23.298;2023-07-22T04:19:51;57213.06;;;-144.48;53.70
10688;BME280;5392;42.688;23.298;2023-07-22T04:22:19;57194.25;;;-144.48;52.69
10688;BME280;5392;42.688;23.298;2023-07-22T04:24:46;57190.09;;;-144.48;52.31
10688;BME280;5392;42.688;23.298;2023-07-22T04:27:16;57148.34;;;-144.48;51.56
10688;BME280;5392;42.688;23.298;2023-07-22T04:29:42;57156.69;;;-144.48;51.44
10688;BME280;5392;42.688;23.298;2023-07-22T04:32:09;57177.56;;;-144.48;50.74
10688;BME280;5392;42.688;23.298;2023-07-22T04:34:36;57150.44;;;-144.48;49.33
10688;BME280;5392;42.688;23.298;2023-07-22T04:37:03;57162.97;;;-144.48;49.11
10688;BME280;5392;42.688;23.298;2023-07-22T04:39:29;57140.00;;;-144.48;48.20
10688;BME280;5392;42.688;23.298;2023-07-22T04:41:56;57133.75;;;-144.48;48.71
10688;BME280;5392;42.688;23.298;2023-07-22T04:44:23;57133.75;;;-144.48;47.77
10688;BME280;5392;42.688;23.298;2023-07-22T04:46:50;57162.97;;;-144.48;47.59
10688;BME280;5392;42.688;23.298;2023-07-22T04:49:17;57085.75;;;-144.48;46.64
10688;BME280;5392;42.688;23.298;2023-07-22T04:51:45;57152.53;;;-144.48;46.60
10688;BME280;5392;42.688;23.298;2023-07-22T04:54:12;57119.13;;;-144.48;46.22
10688;BME280;5392;42.688;23.298;2023-07-22T04:56:39;57117.03;;;-144.48;45.58
10688;BME280;5392;42.688;23.298;2023-07-22T04:59:06;57064.88;;;-144.48;44.69
10688;BME280;5392;42.688;23.298;2023-07-22T05:01:33;57125.38;;;-144.48;45.11
10688;BME280;5392;42.688;23.298;2023-07-22T05:03:59;57121.22;;;-144.48;45.58
10688;BME280;5392;42.688;23.298;2023-07-22T05:06:28;57112.88;;;-144.48;44.66
10688;BME280;5392;42.688;23.298;2023-07-22T05:08:55;57123.31;;;-144.48;44.96
10688;BME280;5392;42.688;23.298;2023-07-22T05:11:22;57108.69;;;-144.48;45.53
10688;BME280;5392;42.688;23.298;2023-07-22T05:13:49;57129.56;;;-144.48;44.84
10688;BME280;5392;42.688;23.298;2023-07-22T05:16:17;57117.03;;;-144.48;44.76
10688;BME280;5392;42.688;23.298;2023-07-22T05:18:45;57150.44;;;-144.48;44.71
10688;BME280;5392;42.688;23.298;2023-07-22T05:21:11;57108.69;;;-144.48;44.42
10688;BME280;5392;42.688;23.298;2023-07-22T05:23:38;57087.81;;;-144.48;44.46
10688;BME280;5392;42.688;23.298;2023-07-22T05:26:05;57129.56;;;-144.48;44.04
10688;BME280;5392;42.688;23.298;2023-07-22T05:28:32;57137.91;;;-144.48;43.91
10688;BME280;5392;42.688;23.298;2023-07-22T05:30:58;57137.91;;;-144.48;44.36
10688;BME280;5392;42.688;23.298;2023-07-22T05:33:25;57096.16;;;-144.48;44.19
10688;BME280;5392;42.688;23.298;2023-07-22T05:35:52;57108.69;;;-144.48;43.21
10688;BME280;5392;42.688;23.298;2023-07-22T05:38:18;57129.56;;;-144.48;42.59
10688;BME280;5392;42.688;23.298;2023-07-22T05:40:45;57112.88;;;-144.48;43.31
10688;BME280;5392;42.688;23.298;2023-07-22T05:43:12;57125.38;;;-144.48;42.69
10688;BME280;5392;42.688;23.298;2023-07-22T05:45:38;57087.81;;;-144.48;42.22
10688;BME280;5392;42.688;23.298;2023-07-22T05:48:05;57108.69;;;-144.48;41.73
10688;BME280;5392;42.688;23.298;2023-07-22T05:50:32;57112.88;;;-144.48;41.52
10688;BME280;5392;42.688;23.298;2023-07-22T05:52:59;57108.69;;;-144.48;41.97
10688;BME280;5392;42.688;23.298;2023-07-22T05:55:25;57092.00;;;-144.48;42.99
10688;BME280;5392;42.688;23.298;2023-07-22T05:57:53;57133.75;;;-144.48;42.95
10688;BME280;5392;42.688;23.298;2023-07-22T06:00:20;57112.88;;;-144.48;42.67
10688;BME280;5392;42.688;23.298;2023-07-22T06:02:47;57125.38;;;-144.48;42.60
10688;BME280;5392;42.688;23.298;2023-07-22T06:05:15;57100.34;;;-144.48;41.01
10688;BME280;5392;42.688;23.298;2023-07-22T06:07:42;57056.50;;;-144.48;40.86
10688;BME280;5392;42.688;23.298;2023-07-22T06:10:09;57131.66;;;-144.48;41.30
10688;BME280;5392;42.688;23.298;2023-07-22T06:12:35;57075.31;;;-144.48;40.39
10688;BME280;5392;42.688;23.298;2023-07-22T06:15:02;57081.56;;;-144.48;40.77
10688;BME280;5392;42.688;23.298;2023-07-22T06:17:29;57054.44;;;-144.48;39.82
10688;BME280;5392;42.688;23.298;2023-07-22T06:19:56;57073.22;;;-144.48;39.70
10688;BME280;5392;42.688;23.298;2023-07-22T06:22:23;57056.50;;;-144.48;40.17
10688;BME280;5392;42.688;23.298;2023-07-22T06:24:49;57071.13;;;-144.48;39.69
10688;BME280;5392;42.688;23.298;2023-07-22T06:27:16;57096.16;;;-144.48;40.68
10688;BME280;5392;42.688;23.298;2023-07-22T06:29:43;57058.59;;;-144.48;40.56
10688;BME280;5392;42.688;23.298;2023-07-22T06:32:09;57056.50;;;-144.48;40.16
10688;BME280;5392;42.688;23.298;2023-07-22T06:34:36;57058.59;;;-144.48;40.64
10688;BME280;5392;42.688;23.298;2023-07-22T06:37:03;57062.78;;;-144.48;40.42
10688;BME280;5392;42.688;23.298;2023-07-22T06:39:31;57089.91;;;-144.48;40.43
10688;BME280;5392;42.688;23.298;2023-07-22T06:41:57;57085.75;;;-144.48;41.85
10688;BME280;5392;42.688;23.298;2023-07-22T06:44:25;57121.22;;;-144.48;42.12
10688;BME280;5392;42.688;23.298;2023-07-22T06:46:52;57114.97;;;-144.48;42.04
10688;BME280;5392;42.688;23.298;2023-07-22T06:49:18;57108.69;;;-144.48;43.04
10688;BME280;5392;42.688;23.298;2023-07-22T06:51:45;57083.66;;;-144.48;41.80
10688;BME280;5392;42.688;23.298;2023-07-22T06:54:12;57108.69;;;-144.48;42.75
10688;BME280;5392;42.688;23.298;2023-07-22T06:56:38;57121.22;;;-144.48;42.82
10688;BME280;5392;42.688;23.298;2023-07-22T06:59:05;57102.44;;;-144.48;42.87
10688;BME280;5392;42.688;23.298;2023-07-22T07:01:32;57085.75;;;-144.48;43.58
10688;BME280;5392;42.688;23.298;2023-07-22T07:03:58;57137.91;;;-144.48;43.82
10688;BME280;5392;42.688;23.298;2023-07-22T07:06:25;57133.75;;;-144.48;42.30
10688;BME280;5392;42.688;23.298;2023-07-22T07:08:52;57102.44;;;-144.48;42.40
10688;BME280;5392;42.688;23.298;2023-07-22T07:11:18;57133.75;;;-144.48;42.39
10688;BME280;5392;42.688;23.298;2023-07-22T07:13:45;57087.81;;;-144.48;42.64
10688;BME280;5392;42.688;23.298;2023-07-22T07:16:23;57079.47;;;-144.48;41.87
10688;BME280;5392;42.688;23.298;2023-07-22T07:18:51;57096.16;;;-144.48;41.13
10688;BME280;5392;42.688;23.298;2023-07-22T07:21:19;57066.94;;;-144.48;40.23
10688;BME280;5392;42.688;23.298;2023-07-22T07:23:45;57071.13;;;-144.48;39.63
10688;BME280;5392;42.688;23.298;2023-07-22T07:26:12;57108.69;;;-144.48;40.79
10688;BME280;5392;42.688;23.298;2023-07-22T07:28:39;57112.88;;;-144.48;41.72
10688;BME280;5392;42.688;23.298;2023-07-22T07:31:06;57087.81;;;-144.48;42.60
10688;BME280;5392;42.688;23.298;2023-07-22T07:33:33;57123.31;;;-144.48;44.09
10688;BME280;5392;42.688;23.298;2023-07-22T07:36:00;57114.97;;;-144.48;43.57
10688;BME280;5392;42.688;23.298;2023-07-22T07:38:27;57096.16;;;-144.48;41.73
10688;BME280;5392;42.688;23.298;2023-07-22T07:41:13;57110.78;;;-144.48;42.40
10688;BME280;5392;42.688;23.298;2023-07-22T07:43:41;57117.03;;;-144.48;42.24
10688;BME280;5392;42.688;23.298;2023-07-22T07:46:19;57077.38;;;-144.48;40.94
10688;BME280;5392;42.688;23.298;2023-07-22T07:48:49;57073.22;;;-144.48;40.60
10688;BME280;5392;42.688;23.298;2023-07-22T07:51:18;57069.03;;;-144.48;40.45
10688;BME280;5392;42.688;23.298;2023-07-22T07:53:45;57073.22;;;-144.48;39.26
10688;BME280;5392;42.688;23.298;2023-07-22T07:56:17;57027.28;;;-144.48;38.67
10688;BME280;5392;42.688;23.298;2023-07-22T07:58:45;57046.09;;;-144.48;40.84
10688;BME280;5392;42.688;23.298;2023-07-22T08:01:12;57162.97;;;-144.48;44.58
10688;BME280;5392;42.688;23.298;2023-07-22T08:03:40;57150.44;;;-144.48;44.89
10688;BME280;5392;42.688;23.298;2023-07-22T08:06:09;57144.19;;;-144.48;44.01
10688;BME280;5392;42.688;23.298;2023-07-22T08:08:36;57169.22;;;-144.48;45.03
10688;BME280;5392;42.688;23.298;2023-07-22T08:11:06;57112.88;;;-144.48;43.72
10688;BME280;5392;42.688;23.298;2023-07-22T08:13:34;57154.59;;;-144.48;45.76
10688;BME280;5392;42.688;23.298;2023-07-22T08:16:02;57192.19;;;-144.48;47.29
10688;BME280;5392;42.688;23.298;2023-07-22T08:18:30;57158.78;;;-144.48;47.47
10688;BME280;5392;42.688;23.298;2023-07-22T08:20:57;57179.66;;;-144.48;46.37
10688;BME280;5392;42.688;23.298;2023-07-22T08:23:24;57112.88;;;-144.48;44.39
10688;BME280;5392;42.688;23.298;2023-07-22T08:25:50;57137.91;;;-144.48;45.34
10688;BME280;5392;42.688;23.298;2023-07-22T08:28:17;57110.78;;;-144.48;43.21
10688;BME280;5392;42.688;23.298;2023-07-22T08:30:44;57117.03;;;-144.48;42.17
10688;BME280;5392;42.688;23.298;2023-07-22T08:33:11;57104.53;;;-144.48;42.58
10688;BME280;5392;42.688;23.298;2023-07-22T08:35:42;57110.78;;;-144.48;41.89
10688;BME280;5392;42.688;23.298;2023-07-22T08:38:09;57073.22;;;-144.48;41.75
10688;BME280;5392;42.688;23.298;2023-07-22T08:40:37;57092.00;;;-144.48;41.30
10688;BME280;5392;42.688;23.298;2023-07-22T08:43:06;57137.91;;;-144.48;44.20
10688;BME280;5392;42.688;23.298;2023-07-22T08:45:35;57125.38;;;-144.48;43.27
10688;BME280;5392;42.688;23.298;2023-07-22T08:48:07;57106.59;;;-144.48;42.93
10688;BME280;5392;42.688;23.298;2023-07-22T08:50:41;57092.00;;;-144.48;43.66
10688;BME280;5392;42.688;23.298;2023-07-22T08:53:10;57133.75;;;-144.48;45.03
10688;BME280;5392;42.688;23.298;2023-07-22T08:55:37;57114.97;;;-144.48;43.39
10688;BME280;5392;42.688;23.298;2023-07-22T08:58:09;57117.03;;;-144.48;43.47
10688;BME280;5392;42.688;23.298;2023-07-22T09:00:38;57100.34;;;-144.48;42.09
10688;BME280;5392;42.688;23.298;2023-07-22T09:03:05;57089.91;;;-144.48;41.96
10688;BME280;5392;42.688;23.298;2023-07-22T09:05:33;57092.00;;;-144.48;41.96
10688;BME280;5392;42.688;23.298;2023-07-22T09:08:05;57125.38;;;-144.48;44.55
10688;BME280;5392;42.688;23.298;2023-07-22T09:10:33;57114.97;;;-144.48;44.20
10688;BME280;5392;42.688;23.298;2023-07-22T09:13:01;57119.13;;;-144.48;43.73
10688;BME280;5392;42.688;23.298;2023-07-22T09:15:28;57112.88;;;-144.48;44.13
10688;BME280;5392;42.688;23.298;2023-07-22T09:17:55;57104.53;;;-144.48;44.59
10688;BME280;5392;42.688;23.298;2023-07-22T09:20:22;57119.13;;;-144.48;44.49
10688;BME280;5392;42.688;23.298;2023-07-22T09:22:50;57117.03;;;-144.48;44.02
10688;BME280;5392;42.688;23.298;2023-07-22T09:25:37;57175.47;;;-144.48;45.26
10688;BME280;5392;42.688;23.298;2023-07-22T09:28:04;57152.53;;;-144.48;46.53
10688;BME280;5392;42.688;23.298;2023-07-22T09:30:34;57173.41;;;-144.48;46.40
10688;BME280;5392;42.688;23.298;2023-07-22T09:33:03;57171.31;;;-144.48;47.28
10688;BME280;5392;42.688;23.298;2023-07-22T09:35:44;57150.44;;;-144.48;45.94
10688;BME280;5392;42.688;23.298;2023-07-22T09:38:11;57135.81;;;-144.48;45.13
10688;BME280;5392;42.688;23.298;2023-07-22T09:40:40;57094.09;;;-144.48;44.52
10688;BME280;5392;42.688;23.298;2023-07-22T09:43:10;57142.09;;;-144.48;44.08
10688;BME280;5392;42.688;23.298;2023-07-22T09:45:38;57102.44;;;-144.48;43.99
10688;BME280;5392;42.688;23.298;2023-07-22T09:48:05;57148.34;;;-144.48;44.48
10688;BME280;5392;42.688;23.298;2023-07-22T09:50:36;57125.38;;;-144.48;44.89
10688;BME280;5392;42.688;23.298;2023-07-22T09:53:04;57156.69;;;-144.48;44.98
10688;BME280;5392;42.688;23.298;2023-07-22T09:55:31;57183.84;;;-144.48;45.23
10688;BME280;5392;42.688;23.298;2023-07-22T09:58:00;57144.19;;;-144.48;45.14
10688;BME280;5392;42.688;23.298;2023-07-22T10:00:33;57127.47;;;-144.48;44.49
10688;BME280;5392;42.688;23.298;2023-07-22T10:03:01;57140.00;;;-144.48;45.02
10688;BME280;5392;42.688;23.298;2023-07-22T10:05:28;57142.09;;;-144.48;44.89
10688;BME280;5392;42.688;23.298;2023-07-22T10:07:57;57196.34;;;-144.48;44.17
10688;BME280;5392;42.688;23.298;2023-07-22T10:10:35;57179.66;;;-144.48;44.58
10688;BME280;5392;42.688;23.298;2023-07-22T10:13:03;57129.56;;;-144.48;44.41
10688;BME280;5392;42.688;23.298;2023-07-22T10:15:34;57125.38;;;-144.48;44.09
10688;BME280;5392;42.688;23.298;2023-07-22T10:18:03;57154.59;;;-144.48;43.37
10688;BME280;5392;42.688;23.298;2023-07-22T10:20:30;57135.81;;;-144.48;43.34
10688;BME280;5392;42.688;23.298;2023-07-22T10:23:01;57104.53;;;-144.48;42.89
10688;BME280;5392;42.688;23.298;2023-07-22T10:25:27;57054.44;;;-144.48;42.50
10688;BME280;5392;42.688;23.298;2023-07-22T10:27:54;57117.03;;;-144.48;41.76
10688;BME280;5392;42.688;23.298;2023-07-22T10:30:21;57114.97;;;-144.48;41.71
10688;BME280;5392;42.688;23.298;2023-07-22T10:32:51;57077.38;;;-144.48;41.67
10688;BME280;5392;42.688;23.298;2023-07-22T10:38:14;57110.78;;;-144.48;40.61
10688;BME280;5392;42.688;23.298;2023-07-22T10:40:50;57041.91;;;-144.48;40.62
10688;BME280;5392;42.688;23.298;2023-07-22T10:43:24;57081.56;;;-144.48;40.62
10688;BME280;5392;42.688;23.298;2023-07-22T10:45:55;57081.56;;;-144.48;40.82
10688;BME280;5392;42.688;23.298;2023-07-22T10:48:25;57125.38;;;-144.48;40.60
10688;BME280;5392;42.688;23.298;2023-07-22T10:50:57;57046.09;;;-144.48;40.26
10688;BME280;5392;42.688;23.298;2023-07-22T11:04:22;57081.56;;;-144.48;40.58
10688;BME280;5392;42.688;23.298;2023-07-22T11:07:05;57100.34;;;-144.48;40.97
10688;BME280;5392;42.688;23.298;2023-07-22T11:09:37;57092.00;;;-144.48;41.06
10688;BME280;5392;42.688;23.298;2023-07-22T11:12:13;57087.81;;;-144.48;40.52
10688;BME280;5392;42.688;23.298;2023-07-22T11:14:47;57104.53;;;-144.48;40.56
10688;BME280;5392;42.688;23.298;2023-07-22T11:17:16;57096.16;;;-144.48;40.11
10688;BME280;5392;42.688;23.298;2023-07-22T11:19:44;57087.81;;;-144.48;40.39
10688;BME280;5392;42.688;23.298;2023-07-22T11:22:11;57079.47;;;-144.48;40.36
10688;BME280;5392;42.688;23.298;2023-07-22T11:24:38;57098.25;;;-144.48;40.47
10688;BME280;5392;42.688;23.298;2023-07-22T11:27:07;57081.56;;;-144.48;40.68
10688;BME280;5392;42.688;23.298;2023-07-22T11:29:35;57060.69;;;-144.48;40.34
10688;BME280;5392;42.688;23.298;2023-07-22T11:32:03;57094.09;;;-144.48;40.12
10688;BME280;5392;42.688;23.298;2023-07-22T11:34:31;57108.69;;;-144.48;39.87
10688;BME280;5392;42.688;23.298;2023-07-22T11:36:58;57066.94;;;-144.48;39.80
10688;BME280;5392;42.688;23.298;2023-07-22T11:39:26;57077.38;;;-144.48;39.34
10688;BME280;5392;42.688;23.298;2023-07-22T11:41:53;57058.59;;;-144.48;40.04
10688;BME280;5392;42.688;23.298;2023-07-22T11:44:22;57069.03;;;-144.48;39.60
10688;BME280;5392;42.688;23.298;2023-07-22T11:46:59;57071.13;;;-144.48;40.07
10688;BME280;5392;42.688;23.298;2023-07-22T11:49:43;57071.13;;;-144.48;40.02
10688;BME280;5392;42.688;23.298;2023-07-22T11:52:17;57050.25;;;-144.48;40.08
10688;BME280;5392;42.688;23.298;2023-07-22T11:54:45;57081.56;;;-144.48;40.12
10688;BME280;5392;42.688;23.298;2023-07-22T11:57:19;57069.03;;;-144.48;40.79
10688;BME280;5392;42.688;23.298;2023-07-22T11:59:51;57108.69;;;-144.48;40.42
10688;BME280;5392;42.688;23.298;2023-07-22T12:02:20;57117.03;;;-144.48;39.92
10688;BME280;5392;42.688;23.298;2023-07-22T12:07:28;57056.50;;;-144.48;40.82
10688;BME280;5392;42.688;23.298;2023-07-22T12:09:58;57064.88;;;-144.48;39.85
10688;BME280;5392;42.688;23.298;2023-07-22T12:12:51;57069.03;;;-144.48;39.86
10688;BME280;5392;42.688;23.298;2023-07-22T12:15:20;57066.94;;;-144.48;39.91
10688;BME280;5392;42.688;23.298;2023-07-22T12:17:51;57064.88;;;-144.48;39.70
10688;BME280;5392;42.688;23.298;2023-07-22T12:20:19;57098.25;;;-144.48;40.17
10688;BME280;5392;42.688;23.298;2023-07-22T12:22:49;57048.16;;;-144.48;40.28
10688;BME280;5392;42.688;23.298;2023-07-22T12:25:16;57066.94;;;-144.48;40.63
10688;BME280;5392;42.688;23.298;2023-07-22T12:27:43;57075.31;;;-144.48;40.26
10688;BME280;5392;42.688;23.298;2023-07-22T12:30:10;57087.81;;;-144.48;40.16
10688;BME280;5392;42.688;23.298;2023-07-22T12:32:38;57073.22;;;-144.48;40.76
10688;BME280;5392;42.688;23.298;2023-07-22T12:35:05;57110.78;;;-144.48;40.66
10688;BME280;5392;42.688;23.298;2023-07-22T12:37:32;57110.78;;;-144.48;40.93
10688;BME280;5392;42.688;23.298;2023-07-22T12:39:58;57079.47;;;-144.48;40.66
10688;BME280;5392;42.688;23.298;2023-07-22T12:42:25;57087.81;;;-144.48;40.84
10688;BME280;5392;42.688;23.298;2023-07-22T12:44:52;57098.25;;;-144.48;40.43
10688;BME280;5392;42.688;23.298;2023-07-22T12:47:19;57087.81;;;-144.48;40.44
10688;BME280;5392;42.688;23.298;2023-07-22T12:49:45;57052.34;;;-144.48;40.46
10688;BME280;5392;42.688;23.298;2023-07-22T12:52:12;57066.94;;;-144.48;40.15
10688;BME280;5392;42.688;23.298;2023-07-22T12:54:39;57100.34;;;-144.48;40.12
10688;BME280;5392;42.688;23.298;2023-07-22T12:57:06;57066.94;;;-144.48;39.91
10688;BME280;5392;42.688;23.298;2023-07-22T12:59:33;57079.47;;;-144.48;39.50